createdAt,value
2018-10-19T00:02:11.751Z,14.00
2018-10-19T00:08:15.500Z,13.90
2018-10-19T00:14:19.292Z,13.90
2018-10-19T00:20:27.163Z,13.90
2018-10-19T00:26:30.887Z,13.80
2018-10-19T00:32:34.452Z,13.80
2018-10-19T00:38:38.054Z,13.80
2018-10-19T00:44:41.724Z,13.80
2018-10-19T00:50:45.684Z,13.70
2018-10-19T00:56:49.056Z,13.60
2018-10-19T01:02:52.717Z,13.50
2018-10-19T01:08:56.436Z,13.40
2018-10-19T01:14:59.930Z,13.30
2018-10-19T01:21:03.698Z,13.40
2018-10-19T01:27:07.570Z,13.30
2018-10-19T01:33:11.045Z,13.30
2018-10-19T01:39:14.690Z,13.20
2018-10-19T01:45:18.434Z,13.10
2018-10-19T01:51:23.114Z,13.00
2018-10-19T01:57:26.589Z,13.00
2018-10-19T02:03:31.075Z,12.90
2018-10-19T02:09:34.742Z,12.90
2018-10-19T02:15:38.486Z,12.80
2018-10-19T02:21:41.941Z,12.70
2018-10-19T02:27:46.134Z,12.70
2018-10-19T02:33:50.139Z,12.50
2018-10-19T02:39:53.599Z,12.30
2018-10-19T02:45:57.655Z,12.20
2018-10-19T02:52:01.170Z,12.00
2018-10-19T02:58:04.675Z,11.80
2018-10-19T03:04:08.447Z,11.70
2018-10-19T03:10:11.827Z,11.60
2018-10-19T03:16:17.537Z,11.60
2018-10-19T03:22:22.270Z,11.50
2018-10-19T03:28:25.799Z,11.60
2018-10-19T03:34:29.382Z,11.50
2018-10-19T03:40:33.090Z,11.60
2018-10-19T03:46:36.538Z,11.60
2018-10-19T03:52:40.102Z,11.60
2018-10-19T03:58:43.523Z,11.60
2018-10-19T04:04:47.343Z,11.80
2018-10-19T04:10:51.123Z,11.90
2018-10-19T04:16:54.879Z,11.90
2018-10-19T04:23:07.610Z,12.00
2018-10-19T04:29:11.337Z,12.00
2018-10-19T04:35:15.017Z,12.00
2018-10-19T04:41:18.823Z,12.00
2018-10-19T04:47:22.213Z,12.10
2018-10-19T04:53:25.999Z,12.00
2018-10-19T04:59:29.583Z,12.00
2018-10-19T05:05:33.753Z,12.00
2018-10-19T05:11:37.678Z,11.90
2018-10-19T05:17:41.509Z,11.90
2018-10-19T05:23:45.330Z,11.80
2018-10-19T05:29:48.775Z,11.80
2018-10-19T05:35:52.589Z,11.80
2018-10-19T05:41:56.048Z,11.80
2018-10-19T05:47:59.513Z,11.80
2018-10-19T05:54:02.988Z,11.90
2018-10-19T06:00:09.036Z,11.90
2018-10-19T06:06:12.791Z,11.90
2018-10-19T06:12:16.941Z,11.90
2018-10-19T06:18:20.731Z,11.90
2018-10-19T06:24:24.741Z,11.90
2018-10-19T06:30:28.199Z,11.90
2018-10-19T06:36:31.648Z,12.00
2018-10-19T06:42:35.530Z,12.00
2018-10-19T06:48:39.084Z,12.20
2018-10-19T06:54:43.338Z,12.30
2018-10-19T07:00:46.825Z,12.40
2018-10-19T07:06:50.531Z,12.40
2018-10-19T07:12:54.348Z,12.50
2018-10-19T07:18:59.856Z,12.60
2018-10-19T07:25:03.682Z,12.70
2018-10-19T07:31:07.364Z,12.70
2018-10-19T07:37:10.948Z,12.80
2018-10-19T07:43:14.554Z,12.90
2018-10-19T07:49:18.738Z,13.00
2018-10-19T07:55:23.141Z,13.00
2018-10-19T08:01:26.728Z,13.00
2018-10-19T08:07:30.074Z,13.00
2018-10-19T08:13:34.016Z,13.10
2018-10-19T08:19:38.699Z,13.20
2018-10-19T08:25:42.803Z,13.40
2018-10-19T08:31:46.450Z,13.50
2018-10-19T08:37:50.436Z,13.70
2018-10-19T08:43:54.055Z,13.80
2018-10-19T08:49:58.537Z,14.00
2018-10-19T08:56:02.227Z,14.20
2018-10-19T09:02:06.677Z,14.20
2018-10-19T09:08:10.256Z,14.40
2018-10-19T09:14:31.000Z,14.50
2018-10-19T09:20:34.541Z,14.50
2018-10-19T09:26:38.384Z,14.60
2018-10-19T09:32:43.226Z,14.70
2018-10-19T09:38:46.744Z,14.70
2018-10-19T09:44:50.194Z,14.70
2018-10-19T09:50:53.700Z,14.50
2018-10-19T09:56:57.473Z,14.40
2018-10-19T10:03:01.875Z,14.50
2018-10-19T10:09:11.001Z,14.60
2018-10-19T10:15:14.881Z,14.70
2018-10-19T10:21:18.386Z,14.80
2018-10-19T10:27:21.901Z,14.90
2018-10-19T10:33:25.897Z,15.00
2018-10-19T10:39:29.507Z,15.20
2018-10-19T10:45:32.999Z,15.30
2018-10-19T10:51:37.829Z,15.30
2018-10-19T10:57:41.587Z,15.40
2018-10-19T11:03:44.957Z,15.50
2018-10-19T11:09:48.485Z,15.50
2018-10-19T11:15:52.573Z,15.60
2018-10-19T11:21:56.186Z,15.50
2018-10-19T11:27:59.831Z,15.60
2018-10-19T11:34:03.232Z,15.50
2018-10-19T11:40:28.286Z,15.30
2018-10-19T11:46:33.921Z,15.60
2018-10-19T11:52:37.399Z,15.70
2018-10-19T11:58:40.783Z,15.80
2018-10-19T12:04:44.300Z,15.90
2018-10-19T12:10:47.803Z,16.10
2018-10-19T12:16:51.927Z,16.10
2018-10-19T12:22:55.249Z,16.20
2018-10-19T12:28:59.392Z,16.30
2018-10-19T12:35:02.804Z,16.30
2018-10-19T12:41:06.355Z,16.30
2018-10-19T12:47:42.770Z,16.40
2018-10-19T12:53:47.676Z,16.30
2018-10-19T12:59:51.292Z,16.50
2018-10-19T13:05:54.648Z,16.60
2018-10-19T13:11:59.099Z,16.60
2018-10-19T13:18:02.501Z,16.60
2018-10-19T13:24:06.008Z,16.60
2018-10-19T13:30:09.477Z,16.40
2018-10-19T13:36:12.843Z,16.20
2018-10-19T13:42:16.111Z,16.30
2018-10-19T13:48:21.091Z,16.40
2018-10-19T13:54:24.650Z,16.50
2018-10-19T14:00:28.308Z,16.80
2018-10-19T14:06:31.608Z,17.10
2018-10-19T14:12:35.392Z,17.40
2018-10-19T14:18:38.786Z,17.50
2018-10-19T14:24:42.968Z,17.60
2018-10-19T14:30:46.354Z,17.60
2018-10-19T14:36:49.910Z,17.40
2018-10-19T14:42:53.237Z,17.20
2018-10-19T14:48:56.734Z,17.00
2018-10-19T14:55:00.163Z,17.00
2018-10-19T15:01:04.311Z,17.00
2018-10-19T15:07:07.851Z,16.80
2018-10-19T15:13:11.306Z,16.70
2018-10-19T15:19:14.673Z,16.70
2018-10-19T15:25:17.986Z,16.60
2018-10-19T15:31:21.294Z,16.50
2018-10-19T15:37:25.162Z,16.30
2018-10-19T15:43:28.494Z,16.20
2018-10-19T15:49:32.025Z,16.10
2018-10-19T15:55:35.818Z,16.00
2018-10-19T16:01:39.116Z,16.00
2018-10-19T16:07:43.943Z,15.90
2018-10-19T16:13:47.555Z,15.90
2018-10-19T16:19:50.897Z,15.80
2018-10-19T16:25:54.438Z,15.80
2018-10-19T16:31:57.930Z,15.70
2018-10-19T16:38:01.327Z,15.60
2018-10-19T16:44:06.468Z,15.50
2018-10-19T16:50:09.830Z,15.40
2018-10-19T16:56:13.265Z,15.20
2018-10-19T17:02:17.628Z,15.00
2018-10-19T17:08:20.978Z,14.80
2018-10-19T17:14:24.349Z,14.60
2018-10-19T17:20:34.279Z,14.50
2018-10-19T17:26:37.929Z,14.40
2018-10-19T17:32:41.432Z,14.30
2018-10-19T17:38:44.670Z,14.10
2018-10-19T17:44:49.383Z,14.10
2018-10-19T17:50:52.884Z,14.00
2018-10-19T17:56:56.416Z,13.90
2018-10-19T18:03:00.206Z,13.80
2018-10-19T18:09:06.751Z,13.70
2018-10-19T18:15:11.179Z,13.60
2018-10-19T18:21:14.539Z,13.40
2018-10-19T18:27:18.058Z,13.30
2018-10-19T18:33:21.482Z,13.30
2018-10-19T18:39:24.826Z,13.30
2018-10-19T18:45:28.167Z,13.30
2018-10-19T18:51:31.555Z,13.20
2018-10-19T18:57:34.958Z,13.20
2018-10-19T19:03:38.985Z,13.20
2018-10-19T19:09:49.268Z,13.20
2018-10-19T19:15:52.809Z,13.20
2018-10-19T19:21:56.217Z,13.30
2018-10-19T19:28:00.142Z,13.20
2018-10-19T19:34:09.130Z,13.00
2018-10-19T19:40:12.596Z,12.90
2018-10-19T19:46:15.967Z,12.70
2018-10-19T19:52:20.743Z,12.70
2018-10-19T19:58:24.653Z,12.60
2018-10-19T20:04:29.178Z,12.50
2018-10-19T20:10:33.198Z,12.40
2018-10-19T20:16:36.888Z,12.30
2018-10-19T20:22:41.262Z,12.20
2018-10-19T20:28:44.610Z,13.40
2018-10-19T20:34:47.966Z,12.40
2018-10-19T20:40:51.819Z,12.10
2018-10-19T20:46:55.179Z,11.90
2018-10-19T20:52:59.659Z,11.80
2018-10-19T20:59:03.149Z,11.70
2018-10-19T21:05:08.657Z,11.70
2018-10-19T21:11:12.833Z,11.60
2018-10-19T21:17:16.292Z,11.50
2018-10-19T21:23:20.476Z,11.50
2018-10-19T21:29:23.990Z,11.40
2018-10-19T21:35:30.833Z,11.30
2018-10-19T21:41:34.892Z,11.30
2018-10-19T21:47:38.370Z,11.20
2018-10-19T21:53:41.882Z,11.20
2018-10-19T21:59:46.807Z,11.10
2018-10-19T22:05:50.300Z,11.10
2018-10-19T22:11:54.065Z,11.00
2018-10-19T22:17:57.823Z,10.80
2018-10-19T22:24:02.015Z,10.60
2018-10-19T22:30:07.408Z,10.60
2018-10-19T22:36:10.757Z,10.50
2018-10-19T22:42:14.265Z,10.30
2018-10-19T22:48:17.693Z,10.10
2018-10-19T22:54:21.124Z,9.70
2018-10-19T23:00:24.861Z,9.70
2018-10-19T23:06:28.438Z,9.60
2018-10-19T23:12:32.547Z,9.50
2018-10-19T23:18:36.234Z,9.40
2018-10-19T23:24:39.561Z,9.30
2018-10-19T23:30:42.856Z,9.10
2018-10-19T23:36:46.342Z,9.00
2018-10-19T23:42:49.767Z,8.90
2018-10-19T23:48:53.126Z,8.90
2018-10-19T23:54:57.187Z,8.80
